createdAt,value
2019-04-21T00:01:20.368Z,96030.91
2019-04-21T00:03:56.720Z,96034.16
2019-04-21T00:06:41.205Z,96043.14
2019-04-21T00:09:19.224Z,96043.14
2019-04-21T00:11:40.869Z,96047.38
2019-04-21T00:14:06.080Z,96049.47
2019-04-21T00:16:34.689Z,96049.47
2019-04-21T00:19:10.767Z,96058.05
2019-04-21T00:21:43.683Z,96049.98
2019-04-21T00:24:24.255Z,96056.70
2019-04-21T00:27:03.765Z,96063.53
2019-04-21T00:29:38.527Z,96063.53
2019-04-21T00:32:00.665Z,96054.05
2019-04-21T00:34:17.710Z,96054.05
2019-04-21T00:37:01.195Z,96055.38
2019-04-21T00:39:48.994Z,96054.09
2019-04-21T00:42:09.782Z,96054.09
2019-04-21T00:44:29.831Z,96050.48
2019-04-21T00:47:05.509Z,96056.77
2019-04-21T00:49:42.712Z,96061.63
2019-04-21T00:52:51.487Z,96051.71
2019-04-21T00:55:30.942Z,96058.95
2019-04-21T00:57:58.579Z,96061.46
2019-04-21T01:02:57.711Z,96055.17
2019-04-21T01:05:30.122Z,96053.70
2019-04-21T01:08:01.102Z,96053.70
2019-04-21T01:10:24.468Z,96058.89
2019-04-21T01:13:04.017Z,96039.88
2019-04-21T01:15:37.387Z,96059.28
2019-04-21T01:18:04.840Z,96052.70
2019-04-21T01:20:17.693Z,96054.23
2019-04-21T01:22:46.519Z,96054.23
2019-04-21T01:25:22.885Z,96054.03
2019-04-21T01:28:03.866Z,96047.31
2019-04-21T01:30:39.934Z,96049.32
2019-04-21T01:33:12.389Z,96045.80
2019-04-21T01:35:39.790Z,96075.02
2019-04-21T01:38:19.577Z,96026.70
2019-04-21T01:40:47.683Z,96031.19
2019-04-21T01:43:13.593Z,96030.56
2019-04-21T01:45:47.299Z,96030.56
2019-04-21T01:48:12.884Z,96027.77
2019-04-21T01:50:47.034Z,96022.63
2019-04-21T01:53:30.701Z,96021.02
2019-04-21T01:56:03.370Z,96015.50
2019-04-21T01:58:28.814Z,96008.13
2019-04-21T02:01:05.677Z,96001.92
2019-04-21T02:03:52.551Z,96001.92
2019-04-21T02:06:18.513Z,96003.88
2019-04-21T02:08:44.241Z,95995.51
2019-04-21T02:11:19.124Z,96000.96
2019-04-21T02:13:53.535Z,96000.96
2019-04-21T02:16:19.024Z,96005.58
2019-04-21T02:18:52.958Z,96005.58
2019-04-21T02:21:18.150Z,96000.50
2019-04-21T02:24:01.633Z,95986.38
2019-04-21T02:26:26.671Z,96000.18
2019-04-21T02:29:03.189Z,95999.27
2019-04-21T02:31:37.641Z,95999.42
2019-04-21T02:34:09.136Z,95998.22
2019-04-21T02:39:16.701Z,96006.02
2019-04-21T02:41:46.997Z,95997.23
2019-04-21T02:44:30.320Z,95999.23
2019-04-21T02:49:27.498Z,95997.74
2019-04-21T02:51:54.460Z,95998.67
2019-04-21T02:54:45.758Z,96003.62
2019-04-21T03:05:11.543Z,96002.19
2019-04-21T03:07:46.402Z,96066.14
2019-04-21T03:10:11.540Z,96001.64
2019-04-21T03:12:38.636Z,95990.72
2019-04-21T03:15:33.211Z,95997.13
2019-04-21T03:17:52.699Z,95991.89
2019-04-21T03:23:02.087Z,95994.08
2019-04-21T03:25:33.194Z,95994.08
2019-04-21T03:28:00.692Z,95989.12
2019-04-21T03:30:47.713Z,95989.12
2019-04-21T03:36:00.797Z,95998.01
2019-04-21T03:38:00.212Z,95998.52
2019-04-21T03:40:24.067Z,95996.28
2019-04-21T03:42:57.778Z,96002.70
2019-04-21T03:45:30.675Z,95996.28
2019-04-21T03:50:39.562Z,95975.67
2019-04-21T03:53:03.111Z,95978.91
2019-04-21T04:00:59.499Z,95995.43
2019-04-21T04:06:43.201Z,95996.09
2019-04-21T04:09:21.277Z,96000.31
2019-04-21T04:11:54.802Z,95996.08
2019-04-21T04:16:58.523Z,95990.86
2019-04-21T04:19:18.645Z,95987.34
2019-04-21T04:21:57.496Z,95991.64
2019-04-21T04:24:36.395Z,95988.27
2019-04-21T04:26:57.021Z,95989.58
2019-04-21T04:31:47.398Z,95989.09
2019-04-21T04:37:05.989Z,95973.64
2019-04-21T04:40:10.561Z,95981.50
2019-04-21T04:47:59.855Z,95974.83
2019-04-21T04:50:35.822Z,95981.26
2019-04-21T04:53:12.697Z,95981.26
2019-04-21T04:55:29.583Z,95980.17
2019-04-21T05:02:58.783Z,95949.81
2019-04-21T05:05:26.864Z,95973.95
2019-04-21T05:08:39.521Z,95974.59
2019-04-21T05:10:38.532Z,95973.32
2019-04-21T05:13:02.234Z,95977.65
2019-04-21T05:15:23.668Z,95974.58
2019-04-21T05:18:04.933Z,95976.98
2019-04-21T05:20:37.034Z,95970.22
2019-04-21T05:23:00.552Z,95978.70
2019-04-21T05:25:31.094Z,95978.00
2019-04-21T05:27:56.928Z,95984.88
2019-04-21T05:30:52.008Z,95985.50
2019-04-21T05:33:33.946Z,95980.14
2019-04-21T05:36:11.012Z,95974.55
2019-04-21T05:39:01.199Z,95970.70
2019-04-21T05:41:22.101Z,95972.28
2019-04-21T05:44:05.074Z,95972.28
2019-04-21T05:46:42.514Z,95972.92
2019-04-21T05:49:11.018Z,95973.16
2019-04-21T05:51:57.494Z,95968.34
2019-04-21T05:54:40.908Z,95972.78
2019-04-21T05:57:02.544Z,95970.66
2019-04-21T05:59:33.965Z,95966.92
2019-04-21T06:02:15.106Z,95967.98
2019-04-21T06:07:13.242Z,95957.92
2019-04-21T06:09:44.105Z,95959.38
2019-04-21T06:12:10.777Z,95956.08
2019-04-21T06:14:49.429Z,95961.71
2019-04-21T06:17:19.784Z,95953.14
2019-04-21T06:19:49.529Z,95949.67
2019-04-21T06:22:14.802Z,95954.90
2019-04-21T06:25:10.978Z,95953.30
2019-04-21T06:27:29.888Z,95953.61
2019-04-21T06:29:54.645Z,95953.23
2019-04-21T06:40:15.240Z,95926.54
2019-04-21T06:42:32.663Z,95934.58
2019-04-21T06:45:05.950Z,95940.42
2019-04-21T06:50:12.180Z,95930.35
2019-04-21T06:52:50.110Z,95931.27
2019-04-21T06:55:13.856Z,95935.60
2019-04-21T06:57:44.445Z,95936.18
2019-04-21T07:00:11.761Z,95934.73
2019-04-21T07:05:18.157Z,95934.95
2019-04-21T07:07:54.930Z,95939.39
2019-04-21T07:10:14.133Z,95938.02
2019-04-21T07:12:44.924Z,95928.84
2019-04-21T07:15:19.518Z,95930.52
2019-04-21T07:17:54.739Z,95930.27
2019-04-21T07:20:21.987Z,95928.51
2019-04-21T07:22:56.473Z,95928.79
2019-04-21T07:25:28.183Z,95923.69
2019-04-21T07:27:59.322Z,95918.27
2019-04-21T07:30:31.728Z,95922.02
2019-04-21T07:33:07.557Z,95920.38
2019-04-21T07:35:32.184Z,95913.94
2019-04-21T07:38:01.267Z,95919.83
2019-04-21T07:40:28.613Z,95918.44
2019-04-21T07:43:01.339Z,95923.03
2019-04-21T07:45:33.414Z,95921.60
2019-04-21T07:48:14.002Z,95912.72
2019-04-21T07:50:52.071Z,95906.91
2019-04-21T07:53:27.756Z,95917.66
2019-04-21T07:55:37.427Z,95908.60
2019-04-21T07:58:26.225Z,95915.04
2019-04-21T08:01:07.420Z,95920.19
2019-04-21T08:03:30.009Z,95910.12
2019-04-21T08:08:26.581Z,95906.83
2019-04-21T08:11:07.739Z,95903.60
2019-04-21T08:16:04.700Z,95895.05
2019-04-21T08:21:05.802Z,95893.30
2019-04-21T08:23:39.926Z,95883.09
2019-04-21T08:26:10.387Z,95878.67
2019-04-21T08:31:13.995Z,95886.16
2019-04-21T08:33:47.037Z,95883.98
2019-04-21T08:38:48.429Z,95877.41
2019-04-21T08:41:12.324Z,95871.31
2019-04-21T08:43:51.403Z,95871.98
2019-04-21T08:46:18.924Z,95875.98
2019-04-21T08:51:30.167Z,95861.20
2019-04-21T08:53:53.715Z,95855.55
2019-04-21T08:56:43.195Z,95855.40
2019-04-21T08:59:31.183Z,95858.73
2019-04-21T09:02:29.801Z,95854.59
2019-04-21T09:05:03.414Z,95846.44
2019-04-21T09:07:36.205Z,95838.66
2019-04-21T09:09:58.046Z,95832.73
2019-04-21T09:12:33.134Z,95828.58
2019-04-21T09:15:01.561Z,95830.02
2019-04-21T09:17:28.569Z,95823.72
2019-04-21T09:20:13.977Z,95822.52
2019-04-21T09:22:37.701Z,95814.21
2019-04-21T09:25:01.498Z,95815.02
2019-04-21T09:27:39.417Z,95810.56
2019-04-21T09:29:57.175Z,95807.77
2019-04-21T09:32:25.731Z,95796.08
2019-04-21T09:34:53.464Z,95798.64
2019-04-21T09:37:37.177Z,95796.45
2019-04-21T09:39:57.314Z,95789.25
2019-04-21T09:42:33.310Z,95790.54
2019-04-21T09:45:00.867Z,95786.66
2019-04-21T09:47:35.123Z,95782.59
2019-04-21T09:50:01.818Z,95776.07
2019-04-21T09:52:39.664Z,95769.45
2019-04-21T09:55:08.295Z,95769.02
2019-04-21T09:57:41.501Z,95771.92
2019-04-21T10:00:11.362Z,95765.55
2019-04-21T10:02:42.765Z,95765.65
2019-04-21T10:05:07.664Z,95757.38
2019-04-21T10:07:41.937Z,95758.22
2019-04-21T10:10:08.441Z,95755.55
2019-04-21T10:12:37.862Z,95744.55
2019-04-21T10:15:08.584Z,95745.34
2019-04-21T10:17:45.079Z,95738.47
2019-04-21T10:20:14.895Z,95736.28
2019-04-21T10:22:44.787Z,95734.23
2019-04-21T10:25:14.876Z,95730.14
2019-04-21T10:27:45.261Z,95730.14
2019-04-21T10:30:16.244Z,95723.92
2019-04-21T10:32:46.026Z,95721.41
2019-04-21T10:35:18.176Z,95725.06
2019-04-21T10:37:58.156Z,95711.64
2019-04-21T10:40:19.568Z,95715.58
2019-04-21T10:42:49.970Z,95705.71
2019-04-21T10:45:19.467Z,95704.39
2019-04-21T10:47:49.366Z,95696.97
2019-04-21T10:50:18.807Z,95695.62
2019-04-21T10:53:16.708Z,95691.96
2019-04-21T10:56:01.582Z,95689.29
2019-04-21T10:58:22.528Z,95677.25
2019-04-21T11:00:55.703Z,95678.06
2019-04-21T11:03:36.907Z,95675.07
2019-04-21T11:06:08.511Z,95674.88
2019-04-21T11:08:43.344Z,95670.23
2019-04-21T11:11:10.007Z,95650.70
2019-04-21T11:13:40.950Z,95663.21
2019-04-21T11:16:10.986Z,95656.80
2019-04-21T11:18:41.952Z,95657.81
2019-04-21T11:21:13.105Z,95652.08
2019-04-21T11:23:43.860Z,95654.08
2019-04-21T11:26:13.922Z,95651.99
2019-04-21T11:28:43.347Z,95645.80
2019-04-21T11:31:15.677Z,95643.63
2019-04-21T11:33:45.494Z,95637.73
2019-04-21T11:36:15.427Z,95636.55
2019-04-21T11:39:06.049Z,95642.36
2019-04-21T11:41:21.896Z,95632.08
2019-04-21T11:43:51.411Z,95633.10
2019-04-21T11:46:20.821Z,95624.23
2019-04-21T11:48:50.461Z,95620.12
2019-04-21T11:51:19.985Z,95627.33
2019-04-21T11:53:50.694Z,95622.41
2019-04-21T11:56:20.912Z,95622.66
2019-04-21T11:58:50.272Z,95621.60
2019-04-21T12:01:19.642Z,95613.80
2019-04-21T12:03:49.613Z,95618.80
2019-04-21T12:06:19.479Z,95607.98
2019-04-21T12:08:51.518Z,95606.08
2019-04-21T12:11:21.028Z,95604.58
2019-04-21T12:13:50.416Z,95598.49
2019-04-21T12:16:21.033Z,95605.63
2019-04-21T12:18:50.998Z,95601.84
2019-04-21T12:21:23.271Z,95601.61
2019-04-21T12:23:54.400Z,95605.49
2019-04-21T12:26:24.169Z,95601.23
2019-04-21T12:28:53.692Z,95594.42
2019-04-21T12:31:45.568Z,95588.48
2019-04-21T12:34:16.159Z,95589.52
2019-04-21T12:36:46.506Z,95582.04
2019-04-21T12:39:16.847Z,95581.03
2019-04-21T12:41:46.697Z,95573.88
2019-04-21T12:44:16.181Z,95570.01
2019-04-21T12:46:45.673Z,95572.64
2019-04-21T12:49:15.941Z,95570.53
2019-04-21T12:51:46.111Z,95566.84
2019-04-21T12:54:15.588Z,95567.11
2019-04-21T12:56:45.610Z,95571.34
2019-04-21T12:59:17.333Z,95567.90
2019-04-21T13:01:46.719Z,95562.58
2019-04-21T13:04:16.133Z,95559.47
2019-04-21T13:06:45.873Z,95558.92
2019-04-21T13:09:19.785Z,95554.96
2019-04-21T13:11:47.016Z,95557.36
2019-04-21T13:14:17.869Z,95550.22
2019-04-21T13:16:47.837Z,95545.98
2019-04-21T13:19:17.668Z,95544.63
2019-04-21T13:21:47.910Z,95545.94
2019-04-21T13:24:17.852Z,95545.92
2019-04-21T13:26:53.619Z,95548.53
2019-04-21T13:29:18.671Z,95543.31
2019-04-21T13:31:48.272Z,95540.13
2019-04-21T13:34:18.008Z,95534.42
2019-04-21T13:36:47.788Z,95531.92
2019-04-21T13:39:55.536Z,95527.27
2019-04-21T13:42:16.068Z,95526.11
2019-04-21T13:44:37.122Z,95525.31
2019-04-21T13:47:07.036Z,95517.49
2019-04-21T13:49:37.145Z,95523.30
2019-04-21T13:52:06.784Z,95522.97
2019-04-21T13:54:36.207Z,95520.31
2019-04-21T13:57:05.870Z,95517.16
2019-04-21T13:59:36.344Z,95517.19
2019-04-21T14:02:06.913Z,95512.93
2019-04-21T14:04:37.765Z,95512.27
2019-04-21T14:07:08.190Z,95510.96
2019-04-21T14:09:47.650Z,95512.16
2019-04-21T14:12:09.660Z,95504.33
2019-04-21T14:14:39.004Z,95506.33
2019-04-21T14:17:08.901Z,95506.33
2019-04-21T14:19:39.419Z,95496.45
2019-04-21T14:22:11.667Z,95494.55
2019-04-21T14:24:41.535Z,95487.08
2019-04-21T14:27:12.140Z,95491.98
2019-04-21T14:29:41.809Z,95493.50
2019-04-21T14:32:11.208Z,95493.29
2019-04-21T14:34:41.985Z,95487.71
2019-04-21T14:37:12.928Z,95479.52
2019-04-21T14:39:52.764Z,95479.13
2019-04-21T14:42:14.119Z,95475.11
2019-04-21T14:44:45.065Z,95473.36
2019-04-21T14:47:34.979Z,95474.08
2019-04-21T14:50:24.506Z,95474.08
2019-04-21T14:53:13.838Z,95476.05
2019-04-21T14:55:45.795Z,95476.98
2019-04-21T14:58:15.487Z,95471.42
2019-04-21T15:01:02.165Z,95470.16
2019-04-21T15:03:32.079Z,95472.03
2019-04-21T15:06:01.541Z,95465.94
2019-04-21T15:08:31.338Z,95465.66
2019-04-21T15:11:01.138Z,95465.33
2019-04-21T15:13:32.189Z,95460.77
2019-04-21T15:16:02.748Z,95459.84
2019-04-21T15:18:32.811Z,95458.43
2019-04-21T15:21:03.614Z,95454.80
2019-04-21T15:23:33.953Z,95455.03
2019-04-21T15:26:04.159Z,95456.63
2019-04-21T15:28:35.717Z,95452.75
2019-04-21T15:31:05.117Z,95452.17
2019-04-21T15:33:34.953Z,95447.16
2019-04-21T15:36:05.101Z,95448.80
2019-04-21T15:38:35.831Z,95443.84
2019-04-21T15:41:10.085Z,95436.50
2019-04-21T15:43:36.806Z,95437.25
2019-04-21T15:46:06.779Z,95438.00
2019-04-21T15:48:37.044Z,95431.17
2019-04-21T15:51:08.531Z,95433.59
2019-04-21T15:53:37.935Z,95431.16
2019-04-21T15:56:30.962Z,95424.60
2019-04-21T15:59:08.386Z,95428.55
2019-04-21T16:01:46.415Z,95427.00
2019-04-21T16:04:16.818Z,95426.09
2019-04-21T16:06:47.729Z,95424.34
2019-04-21T16:09:21.598Z,95421.17
2019-04-21T16:11:49.748Z,95422.76
2019-04-21T16:14:20.502Z,95411.66
2019-04-21T16:16:51.621Z,95419.80
2019-04-21T16:19:21.199Z,95417.92
2019-04-21T16:22:01.121Z,95406.98
2019-04-21T16:24:33.575Z,95409.60
2019-04-21T16:27:08.442Z,95410.82
2019-04-21T16:29:39.519Z,95406.42
2019-04-21T16:32:09.297Z,95406.55
2019-04-21T16:34:48.355Z,95407.98
2019-04-21T16:37:11.841Z,95406.61
2019-04-21T16:39:41.620Z,95409.50
2019-04-21T16:42:12.064Z,95405.25
2019-04-21T16:44:42.873Z,95404.10
2019-04-21T16:47:13.807Z,95401.14
2019-04-21T16:49:43.703Z,95405.73
2019-04-21T16:52:20.445Z,95403.30
2019-04-21T16:54:58.334Z,95398.23
2019-04-21T16:57:35.721Z,95398.92
2019-04-21T17:00:10.718Z,95400.62
2019-04-21T17:02:40.877Z,95401.74
2019-04-21T17:05:12.512Z,95400.30
2019-04-21T17:07:43.027Z,95398.37
2019-04-21T17:10:12.852Z,95398.76
2019-04-21T17:12:43.270Z,95407.09
2019-04-21T17:15:29.393Z,95411.18
2019-04-21T17:18:06.308Z,95410.30
2019-04-21T17:20:33.375Z,95411.78
2019-04-21T17:22:51.489Z,95412.94
2019-04-21T17:25:24.921Z,95416.20
2019-04-21T17:27:54.603Z,95422.42
2019-04-21T17:30:24.341Z,95421.77
2019-04-21T17:32:55.385Z,95421.49
2019-04-21T17:35:24.929Z,95426.34
2019-04-21T17:37:54.453Z,95429.59
2019-04-21T17:40:24.244Z,95424.62
2019-04-21T17:43:02.024Z,95427.59
2019-04-21T17:45:25.299Z,95428.77
2019-04-21T17:48:02.487Z,95425.58
2019-04-21T17:50:47.373Z,95431.52
2019-04-21T17:53:26.532Z,95428.99
2019-04-21T17:56:15.283Z,95426.14
2019-04-21T17:58:46.330Z,95426.28
2019-04-21T18:01:19.581Z,95433.39
2019-04-21T18:03:54.386Z,95439.04
2019-04-21T18:06:14.267Z,95441.52
2019-04-21T18:08:55.204Z,95445.09
2019-04-21T18:11:12.673Z,95450.66
2019-04-21T18:13:35.284Z,95445.88
2019-04-21T18:16:15.841Z,95449.13
2019-04-21T18:18:36.840Z,95450.84
2019-04-21T18:21:16.752Z,95445.55
2019-04-21T18:23:57.340Z,95453.52
2019-04-21T18:26:28.889Z,95461.18
2019-04-21T18:28:53.849Z,95460.44
2019-04-21T18:31:22.993Z,95460.16
2019-04-21T18:34:06.100Z,95461.66
2019-04-21T18:36:59.402Z,95468.38
2019-04-21T18:39:46.085Z,95467.90
2019-04-21T18:42:45.384Z,95474.23
2019-04-21T18:45:55.368Z,95462.61
2019-04-21T18:48:19.073Z,95468.66
2019-04-21T18:50:55.330Z,95474.34
2019-04-21T18:53:37.855Z,95468.72
2019-04-21T18:56:00.102Z,95473.18
2019-04-21T18:58:26.483Z,95477.91
2019-04-21T19:01:03.191Z,95480.35
2019-04-21T19:03:35.796Z,95485.30
2019-04-21T19:06:08.720Z,95493.45
2019-04-21T19:08:53.389Z,95484.35
2019-04-21T19:11:25.069Z,95494.45
2019-04-21T19:14:32.294Z,95499.24
2019-04-21T19:19:34.089Z,95494.45
2019-04-21T19:21:40.597Z,95502.64
2019-04-21T19:24:24.314Z,95501.05
2019-04-21T19:26:54.658Z,95502.34
2019-04-21T19:29:23.977Z,95499.64
2019-04-21T19:31:49.306Z,95501.68
2019-04-21T19:34:11.401Z,95507.71
2019-04-21T19:36:34.451Z,95499.92
2019-04-21T19:39:13.490Z,95499.13
2019-04-21T19:41:50.996Z,95498.16
2019-04-21T19:44:26.224Z,95502.25
2019-04-21T19:47:05.211Z,95503.39
2019-04-21T19:49:38.283Z,95497.42
2019-04-21T19:51:54.049Z,95495.66
2019-04-21T19:54:25.188Z,95492.56
2019-04-21T19:56:49.080Z,95490.31
2019-04-21T19:59:30.658Z,95490.31
2019-04-21T20:01:51.322Z,95489.91
2019-04-21T20:04:31.530Z,95494.90
2019-04-21T20:07:03.009Z,95495.89
2019-04-21T20:09:39.611Z,95493.20
2019-04-21T20:12:10.687Z,95485.93
2019-04-21T20:14:55.333Z,95485.36
2019-04-21T20:17:09.969Z,95484.28
2019-04-21T20:19:28.222Z,95483.19
2019-04-21T20:21:59.009Z,95478.11
2019-04-21T20:24:32.039Z,95482.50
2019-04-21T20:27:07.892Z,95487.29
2019-04-21T20:29:52.531Z,95480.02
2019-04-21T20:32:26.695Z,95479.03
2019-04-21T20:34:56.191Z,95482.20
2019-04-21T20:37:29.717Z,95480.03
2019-04-21T20:39:46.208Z,95481.02
2019-04-21T20:42:21.157Z,95480.12
2019-04-21T20:45:16.117Z,95483.43
2019-04-21T20:47:22.874Z,95478.63
2019-04-21T20:49:58.523Z,95484.62
2019-04-21T20:52:38.422Z,95486.91
2019-04-21T20:54:59.757Z,95488.70
2019-04-21T20:57:32.853Z,95491.70
2019-04-21T21:00:07.104Z,95487.30
2019-04-21T21:02:41.713Z,95474.94
2019-04-21T21:05:00.704Z,95481.22
2019-04-21T21:10:10.666Z,95485.60
2019-04-21T21:12:51.161Z,95482.41
2019-04-21T21:15:03.408Z,95479.42
2019-04-21T21:20:21.241Z,95485.82
2019-04-21T21:22:42.334Z,95487.70
2019-04-21T21:25:23.475Z,95479.81
2019-04-21T21:27:41.870Z,95482.91
2019-04-21T21:30:15.683Z,95482.91
2019-04-21T21:32:50.861Z,95483.59
2019-04-21T21:35:20.567Z,95486.19
2019-04-21T21:37:54.884Z,95490.19
2019-04-21T21:40:26.847Z,95490.57
2019-04-21T21:42:43.797Z,95485.50
2019-04-21T21:45:17.235Z,95483.70
2019-04-21T21:48:04.636Z,95484.81
2019-04-21T21:50:23.314Z,95476.51
2019-04-21T21:52:57.634Z,95483.09
2019-04-21T21:55:15.934Z,95485.38
2019-04-21T21:57:50.365Z,95478.30
2019-04-21T22:00:17.530Z,95481.30
2019-04-21T22:02:51.315Z,95480.58
2019-04-21T22:05:24.350Z,95470.70
2019-04-21T22:07:52.167Z,95471.49
2019-04-21T22:10:23.172Z,95467.50
2019-04-21T22:13:00.753Z,95472.98
2019-04-21T22:15:26.798Z,95472.55
2019-04-21T22:18:19.400Z,95476.36
2019-04-21T22:20:44.588Z,95471.75
2019-04-21T22:23:06.402Z,95477.11
2019-04-21T22:25:33.377Z,95480.61
2019-04-21T22:27:59.999Z,95480.91
2019-04-21T22:30:38.190Z,95474.48
2019-04-21T22:33:06.265Z,95479.66
2019-04-21T22:35:38.639Z,95475.77
2019-04-21T22:38:19.097Z,95478.77
2019-04-21T22:40:46.609Z,95464.28
2019-04-21T22:43:16.820Z,95462.97
2019-04-21T22:45:36.018Z,95469.62
2019-04-21T22:48:13.603Z,95471.53
2019-04-21T22:50:38.334Z,95479.77
2019-04-21T22:53:10.136Z,95474.48
2019-04-21T22:55:39.136Z,95480.13
2019-04-21T22:58:09.595Z,95473.13
2019-04-21T23:00:46.431Z,95466.92
2019-04-21T23:03:17.342Z,95461.98
2019-04-21T23:05:44.454Z,95458.59
2019-04-21T23:08:13.109Z,95458.87
2019-04-21T23:10:52.351Z,95456.66
2019-04-21T23:13:18.287Z,95461.13
2019-04-21T23:15:51.215Z,95452.45
2019-04-21T23:18:30.801Z,95454.11
2019-04-21T23:21:03.374Z,95448.94
2019-04-21T23:23:42.222Z,95444.97
2019-04-21T23:26:09.156Z,95440.35
2019-04-21T23:28:40.304Z,95444.84
2019-04-21T23:31:12.550Z,95446.32
2019-04-21T23:33:23.881Z,95441.73
2019-04-21T23:36:05.204Z,95445.92
2019-04-21T23:38:30.228Z,95446.91
2019-04-21T23:40:59.951Z,95439.89
2019-04-21T23:43:30.047Z,95446.23
2019-04-21T23:46:04.259Z,95443.42
2019-04-21T23:48:43.834Z,95450.63
2019-04-21T23:51:13.859Z,95436.91
2019-04-21T23:53:33.286Z,95434.94
2019-04-21T23:56:03.451Z,95442.41
2019-04-21T23:58:35.213Z,95437.61
